Time;durP1;ratioP1;P1;durP2;ratioP2;P2;SDS_P1;SDS_P2;PMS_P1;PMS_P2;Temp;Humidity;BMP_temperature;BMP_pressure;BME280_temperature;BME280_humidity;BME280_pressure;Samples;Min_cycle;Max_cycle;Signal;HPM_P1;HPM_P2
2021/12/01 00:00:17;;;;;;;21.02;10.07;;;;;;;-1.00;100.00;96864.56;5153349;27;20469;-49
2021/12/01 00:02:43;;;;;;;16.40;9.77;;;;;;;-1.01;100.00;96881.03;5153604;27;20051;-49
2021/12/01 00:05:11;;;;;;;52.10;21.83;;;;;;;-1.02;100.00;96884.84;5153399;27;20262;-51
2021/12/01 00:07:38;;;;;;;27.65;13.85;;;;;;;-1.06;100.00;96884.75;5153420;27;20046;-51
2021/12/01 00:10:06;;;;;;;17.80;10.18;;;;;;;-1.09;100.00;96898.13;5153177;27;20070;-51
2021/12/01 00:12:32;;;;;;;18.63;8.85;;;;;;;-1.11;100.00;96898.44;5153540;27;20050;-50
2021/12/01 00:14:59;;;;;;;16.65;10.05;;;;;;;-1.10;100.00;96883.91;5153095;27;20053;-50
2021/12/01 00:17:25;;;;;;;15.18;9.75;;;;;;;-1.07;100.00;96893.16;5152884;27;20167;-51
2021/12/01 00:19:52;;;;;;;21.83;10.88;;;;;;;-1.03;100.00;96888.69;5153439;27;20091;-49
2021/12/01 00:22:18;;;;;;;17.30;10.00;;;;;;;-0.98;100.00;96893.78;5153106;27;20459;-49
2021/12/01 00:24:45;;;;;;;19.10;9.77;;;;;;;-1.00;100.00;96896.84;5153409;27;20047;-50
2021/12/01 00:27:11;;;;;;;15.77;9.13;;;;;;;-1.04;100.00;96909.38;5152937;27;20047;-50
2021/12/01 00:29:38;;;;;;;15.32;8.85;;;;;;;-1.08;100.00;96924.66;5153234;27;20053;-52
2021/12/01 00:32:05;;;;;;;15.07;8.65;;;;;;;-1.10;100.00;96926.91;5152975;27;20406;-50
2021/12/01 00:34:32;;;;;;;15.82;9.65;;;;;;;-1.09;100.00;96931.16;5153080;27;20050;-49
2021/12/01 00:36:59;;;;;;;14.90;8.50;;;;;;;-1.13;100.00;96934.84;5152737;27;20416;-50
2021/12/01 00:39:25;;;;;;;17.50;9.38;;;;;;;-1.16;100.00;96935.56;5152774;27;20054;-50
2021/12/01 00:41:52;;;;;;;15.35;8.65;;;;;;;-1.22;100.00;96951.94;5152986;27;20050;-52
2021/12/01 00:44:19;;;;;;;15.02;9.30;;;;;;;-1.24;100.00;96945.31;5152733;27;20501;-49
2021/12/01 00:46:54;;;;;;;16.92;10.10;;;;;;;-1.22;100.00;96949.25;5152683;27;20501;-51
2021/12/01 00:49:20;;;;;;;15.25;8.45;;;;;;;-1.29;100.00;96942.91;5152658;27;20150;-52
2021/12/01 00:51:47;;;;;;;14.48;8.63;;;;;;;-1.38;100.00;96948.41;5152913;27;20047;-51
2021/12/01 00:54:13;;;;;;;15.13;8.90;;;;;;;-1.48;100.00;96951.56;5152643;27;20183;-49
2021/12/01 00:56:40;;;;;;;13.88;8.85;;;;;;;-1.52;100.00;96942.63;5152917;27;20073;-50
2021/12/01 00:59:07;;;;;;;17.10;9.80;;;;;;;-1.59;100.00;96935.13;5152129;27;20047;-50
2021/12/01 01:01:33;;;;;;;14.23;9.00;;;;;;;-1.69;100.00;96943.66;5152768;27;20049;-49
2021/12/01 01:03:59;;;;;;;14.38;8.95;;;;;;;-1.82;100.00;96942.13;5152476;27;20047;-49
2021/12/01 01:06:26;;;;;;;11.40;8.38;;;;;;;-1.86;100.00;96949.28;5152403;27;20081;-49
2021/12/01 01:08:52;;;;;;;16.90;9.07;;;;;;;-1.88;100.00;96946.16;5152418;27;20511;-49
2021/12/01 01:16:50;;;;;;;14.82;8.23;;;;;;;-2.09;100.00;96940.91;5152571;27;20544;-50
2021/12/01 01:19:18;;;;;;;14.00;8.77;;;;;;;-2.25;100.00;96927.38;5152048;27;20057;-49
2021/12/01 01:21:49;;;;;;;14.20;8.57;;;;;;;-2.37;100.00;96928.94;5152130;27;20047;-49
2021/12/01 01:24:16;;;;;;;16.65;8.13;;;;;;;-2.45;100.00;96924.47;5152385;27;20051;-50
2021/12/01 01:26:43;;;;;;;17.98;8.80;;;;;;;-2.47;100.00;96921.31;5151991;27;20057;-50
2021/12/01 01:29:10;;;;;;;15.88;8.27;;;;;;;-2.52;100.00;96912.72;5152049;27;20073;-50
2021/12/01 01:31:37;;;;;;;14.45;8.52;;;;;;;-2.56;100.00;96911.81;5152089;27;20053;-49
2021/12/01 01:34:04;;;;;;;13.40;8.50;;;;;;;-2.62;100.00;96911.25;5151963;27;20118;-49
2021/12/01 01:36:30;;;;;;;13.50;8.15;;;;;;;-2.67;100.00;96917.59;5151882;27;20057;-50
2021/12/01 01:38:57;;;;;;;16.23;8.40;;;;;;;-2.68;100.00;96910.69;5151805;27;20047;-49
2021/12/01 01:41:24;;;;;;;14.75;7.50;;;;;;;-2.81;100.00;96913.69;5151968;27;20073;-49
2021/12/01 01:43:51;;;;;;;15.48;8.43;;;;;;;-2.84;100.00;96905.16;5151573;27;20046;-54
2021/12/01 01:46:19;;;;;;;18.48;8.23;;;;;;;-2.87;100.00;96900.47;5152084;27;20050;-53
2021/12/01 01:48:47;;;;;;;13.90;7.30;;;;;;;-2.97;100.00;96903.56;5151793;27;20061;-49
2021/12/01 01:51:16;;;;;;;15.73;8.63;;;;;;;-3.01;100.00;96896.53;5151858;27;20462;-49
2021/12/01 01:53:42;;;;;;;16.10;8.45;;;;;;;-2.99;100.00;96888.97;5151773;27;20074;-50
2021/12/01 01:56:09;;;;;;;15.00;8.75;;;;;;;-3.03;100.00;96883.47;5151611;27;20141;-52
2021/12/01 01:58:35;;;;;;;17.20;8.73;;;;;;;-3.02;100.00;96893.06;5152041;27;20046;-50
2021/12/01 02:01:06;;;;;;;18.63;8.13;;;;;;;-3.10;100.00;96888.56;5151423;27;20053;-51
2021/12/01 02:03:35;;;;;;;15.30;7.82;;;;;;;-3.17;100.00;96897.16;5151517;27;20047;-53
2021/12/01 02:06:01;;;;;;;14.45;7.78;;;;;;;-3.17;100.00;96891.78;5151573;27;20051;-52
2021/12/01 02:08:30;;;;;;;13.38;7.05;;;;;;;-3.19;100.00;96896.72;5151680;27;20054;-52
2021/12/01 02:10:58;;;;;;;15.27;7.18;;;;;;;-3.20;100.00;96899.72;5151060;27;20115;-53
2021/12/01 02:13:25;;;;;;;15.38;7.95;;;;;;;-3.18;100.00;96903.63;5151765;27;20052;-52
2021/12/01 02:15:54;;;;;;;13.68;7.45;;;;;;;-3.23;100.00;96914.56;5151354;27;20053;-49
2021/12/01 02:18:20;;;;;;;17.10;8.57;;;;;;;-3.20;100.00;96921.97;5151000;27;20143;-50
2021/12/01 02:20:59;;;;;;;18.35;8.35;;;;;;;-3.15;100.00;96918.28;5151412;27;20050;-50
2021/12/01 02:23:26;;;;;;;11.23;6.45;;;;;;;-3.17;100.00;96934.66;5151222;27;20498;-52
2021/12/01 02:25:52;;;;;;;10.13;6.07;;;;;;;-3.13;100.00;96940.19;5151359;27;20051;-49
2021/12/01 02:28:19;;;;;;;10.73;6.68;;;;;;;-3.13;100.00;96948.22;5151134;27;20051;-50
2021/12/01 02:30:45;;;;;;;13.85;7.03;;;;;;;-3.09;100.00;96959.84;5151092;27;20053;-50
2021/12/01 02:33:11;;;;;;;18.45;7.47;;;;;;;-3.08;100.00;96964.09;5151093;27;20043;-50
2021/12/01 02:35:38;;;;;;;12.10;6.38;;;;;;;-3.20;100.00;96980.91;5151552;27;20051;-50
2021/12/01 02:38:05;;;;;;;11.93;6.22;;;;;;;-3.22;100.00;96999.22;5151111;27;20058;-49
2021/12/01 02:40:32;;;;;;;11.55;5.78;;;;;;;-3.27;100.00;97007.44;5151363;27;20049;-49
2021/12/01 02:43:00;;;;;;;11.73;6.05;;;;;;;-3.33;100.00;97016.78;5151046;27;20509;-49
2021/12/01 02:45:26;;;;;;;11.77;6.00;;;;;;;-3.31;100.00;97028.72;5151027;27;20433;-50
2021/12/01 02:47:52;;;;;;;11.25;6.10;;;;;;;-3.36;100.00;97030.84;5150896;27;20111;-49
2021/12/01 02:50:19;;;;;;;10.07;6.53;;;;;;;-3.35;100.00;97027.03;5150912;27;20094;-50
2021/12/01 02:52:46;;;;;;;10.63;6.45;;;;;;;-3.37;100.00;97038.06;5151000;27;20043;-50
2021/12/01 02:55:15;;;;;;;13.55;6.47;;;;;;;-3.42;100.00;97043.63;5151026;27;20055;-48
2021/12/01 02:57:47;;;;;;;9.90;6.47;;;;;;;-3.42;100.00;97043.63;5150998;27;20149;-49
2021/12/01 03:00:14;;;;;;;10.73;6.30;;;;;;;-3.42;100.00;97045.53;5150793;27;20057;-49
2021/12/01 03:02:42;;;;;;;12.32;6.55;;;;;;;-3.48;100.00;97044.16;5150668;27;20056;-50
2021/12/01 03:05:09;;;;;;;13.80;6.75;;;;;;;-3.45;100.00;97043.50;5150760;27;20486;-49
2021/12/01 03:07:36;;;;;;;14.70;6.90;;;;;;;-3.48;100.00;97044.16;5150957;27;20046;-49
2021/12/01 03:10:03;;;;;;;11.18;5.90;;;;;;;-3.48;100.00;97046.84;5150697;27;20047;-50
2021/12/01 03:12:32;;;;;;;9.98;5.88;;;;;;;-3.45;100.00;97040.81;5150759;27;20046;-52
2021/12/01 03:14:59;;;;;;;12.02;6.88;;;;;;;-3.41;100.00;97047.09;5150681;27;20057;-50
2021/12/01 03:17:27;;;;;;;12.15;5.60;;;;;;;-3.33;100.00;97048.94;5149952;27;20055;-50
2021/12/01 03:19:53;;;;;;;7.82;5.40;;;;;;;-3.16;100.00;97040.78;5150678;27;20050;-49
2021/12/01 03:22:20;;;;;;;11.63;7.15;;;;;;;-3.06;100.00;97047.66;5150618;27;20050;-49
2021/12/01 03:24:46;;;;;;;10.05;5.90;;;;;;;-2.98;100.00;97060.19;5153176;27;20047;-49
2021/12/01 03:27:12;;;;;;;11.65;6.30;;;;;;;-2.90;100.00;97070.06;5153989;27;20047;-48
2021/12/01 03:29:40;;;;;;;10.35;6.32;;;;;;;-2.81;100.00;97087.97;5154146;27;20118;-51
2021/12/01 03:32:07;;;;;;;11.55;6.25;;;;;;;-2.75;100.00;97100.06;5154038;27;20050;-50
2021/12/01 03:34:35;;;;;;;13.13;6.55;;;;;;;-2.67;100.00;97124.13;5154252;27;20086;-49
2021/12/01 03:37:01;;;;;;;13.27;6.43;;;;;;;-2.63;100.00;97143.06;5153876;27;20054;-49
2021/12/01 03:39:27;;;;;;;12.77;6.05;;;;;;;-2.58;100.00;97161.63;5153862;27;20135;-49
2021/12/01 03:41:54;;;;;;;25.05;10.40;;;;;;;-2.58;100.00;97169.69;5153813;27;20095;-49
2021/12/01 03:44:20;;;;;;;16.15;8.10;;;;;;;-2.61;100.00;97173.78;5153739;27;20049;-49
2021/12/01 03:46:47;;;;;;;12.35;6.22;;;;;;;-2.68;100.00;97186.94;5153874;27;20057;-50
2021/12/01 03:49:13;;;;;;;11.63;6.15;;;;;;;-2.71;100.00;97192.97;5153636;27;20056;-49
2021/12/01 03:51:39;;;;;;;20.88;8.55;;;;;;;-2.70;100.00;97199.91;5153600;27;20638;-49
2021/12/01 03:54:06;;;;;;;12.98;6.22;;;;;;;-2.70;100.00;97213.31;5153728;27;20047;-48
2021/12/01 03:56:33;;;;;;;10.27;5.55;;;;;;;-2.67;100.00;97214.53;5153587;27;20051;-51
2021/12/01 03:59:00;;;;;;;11.07;6.30;;;;;;;-2.58;100.00;97211.81;5153554;27;20131;-51
2021/12/01 04:01:27;;;;;;;13.25;6.30;;;;;;;-2.52;100.00;97230.06;5153880;27;20051;-49
2021/12/01 04:03:54;;;;;;;9.88;5.53;;;;;;;-2.54;100.00;97234.97;5153393;27;20053;-53
2021/12/01 04:06:20;;;;;;;16.08;6.10;;;;;;;-2.56;100.00;97252.53;5153496;27;20063;-52
2021/12/01 04:08:46;;;;;;;8.75;4.88;;;;;;;-2.57;100.00;97253.63;5153608;27;20047;-50
2021/12/01 04:11:13;;;;;;;12.48;5.97;;;;;;;-2.49;100.00;97250.91;5153440;27;20079;-52
2021/12/01 04:13:39;;;;;;;10.63;5.25;;;;;;;-2.40;100.00;97253.50;5153556;27;20053;-53
2021/12/01 04:16:06;;;;;;;8.27;5.18;;;;;;;-2.40;100.00;97253.50;5153181;27;20098;-51
2021/12/01 04:18:32;;;;;;;9.48;4.40;;;;;;;-2.37;100.00;97245.63;5152969;27;20102;-49
2021/12/01 04:20:59;;;;;;;10.40;5.28;;;;;;;-2.35;100.00;97249.84;5153183;27;20057;-51
2021/12/01 04:23:25;;;;;;;17.92;6.60;;;;;;;-2.33;100.00;97236.88;5153062;27;20163;-50
2021/12/01 04:25:52;;;;;;;9.73;5.22;;;;;;;-2.25;100.00;97233.34;5153080;27;20054;-49
2021/12/01 04:28:18;;;;;;;8.82;4.70;;;;;;;-2.33;100.00;97207.34;5153320;27;20061;-49
2021/12/01 04:30:45;;;;;;;8.90;4.75;;;;;;;-2.26;100.00;97192.31;5152991;27;20050;-51
2021/12/01 04:33:11;;;;;;;6.55;4.10;;;;;;;-2.24;100.00;97182.00;5153082;27;20133;-50
2021/12/01 04:35:37;;;;;;;7.35;4.43;;;;;;;-2.23;100.00;97164.00;5152633;27;20516;-52
2021/12/01 04:38:05;;;;;;;6.40;4.25;;;;;;;-2.19;100.00;97143.47;5153173;27;20061;-49
2021/12/01 04:40:32;;;;;;;5.10;3.60;;;;;;;-2.16;100.00;97124.00;5153031;27;20057;-51
2021/12/01 04:42:58;;;;;;;5.97;4.20;;;;;;;-2.18;100.00;97108.22;5152518;27;20046;-49
2021/12/01 04:45:25;;;;;;;8.25;4.47;;;;;;;-2.13;100.00;97083.09;5152688;27;20133;-49
2021/12/01 04:47:54;;;;;;;4.50;3.42;;;;;;;-2.16;100.00;97067.66;5152483;27;20054;-49
2021/12/01 04:50:24;;;;;;;5.90;3.67;;;;;;;-2.21;100.00;97027.56;5152655;27;20068;-50
2021/12/01 04:52:53;;;;;;;8.25;4.40;;;;;;;-2.12;100.00;97022.91;5152418;27;20508;-54
2021/12/01 04:55:20;;;;;;;8.07;4.18;;;;;;;-2.13;100.00;97024.03;5152057;27;20106;-49
2021/12/01 04:57:47;;;;;;;7.40;3.97;;;;;;;-2.05;100.00;97039.25;5152091;27;20054;-52
2021/12/01 05:00:16;;;;;;;9.60;4.55;;;;;;;-2.00;100.00;97043.59;5152536;27;20421;-51
2021/12/01 05:02:43;;;;;;;6.15;4.50;;;;;;;-1.95;100.00;97057.59;5152278;27;20047;-50
2021/12/01 05:05:09;;;;;;;8.93;4.90;;;;;;;-1.92;100.00;97042.72;5152164;27;20053;-50
2021/12/01 05:07:36;;;;;;;6.68;3.88;;;;;;;-1.94;100.00;97018.09;5152371;27;20050;-52
2021/12/01 05:10:03;;;;;;;11.50;5.97;;;;;;;-1.91;100.00;96980.59;5151969;27;20049;-51
2021/12/01 05:12:30;;;;;;;12.75;5.78;;;;;;;-1.86;100.00;96968.09;5152175;27;20569;-52
2021/12/01 05:14:56;;;;;;;20.25;9.18;;;;;;;-1.86;100.00;96919.75;5152198;27;20102;-50
2021/12/01 05:17:22;;;;;;;27.52;9.05;;;;;;;-1.84;100.00;96918.28;5152140;27;20051;-52
2021/12/01 05:19:49;;;;;;;16.95;6.88;;;;;;;-1.79;100.00;96914.59;5151664;27;20047;-54
2021/12/01 05:22:15;;;;;;;55.80;14.82;;;;;;;-1.80;100.00;96913.00;5151854;27;20047;-50
2021/12/01 05:24:42;;;;;;;67.97;16.65;;;;;;;-1.82;100.00;96915.25;5150979;27;20050;-49
2021/12/01 05:27:08;;;;;;;33.63;10.05;;;;;;;-1.85;100.00;96910.56;5151307;27;20051;-51
2021/12/01 05:29:35;;;;;;;17.23;5.35;;;;;;;-1.87;100.00;96886.72;5151908;27;20057;-52
2021/12/01 05:32:01;;;;;;;9.07;4.30;;;;;;;-1.88;100.00;96844.09;5151663;27;20053;-52
2021/12/01 05:34:27;;;;;;;95.32;21.63;;;;;;;-1.80;100.00;96851.22;5151669;27;20054;-53
2021/12/01 05:36:54;;;;;;;71.40;16.58;;;;;;;-1.85;100.00;96830.78;5151448;27;20057;-52
2021/12/01 05:39:21;;;;;;;24.65;7.20;;;;;;;-1.85;100.00;96856.84;5151859;27;20053;-49
2021/12/01 05:41:47;;;;;;;19.90;5.65;;;;;;;-1.82;100.00;96850.81;5151618;27;20047;-49
2021/12/01 05:44:13;;;;;;;15.30;5.55;;;;;;;-1.82;100.00;96824.72;5151586;27;20580;-51
2021/12/01 05:46:40;;;;;;;33.90;9.10;;;;;;;-1.84;100.00;96810.84;5150020;27;20047;-50
2021/12/01 05:49:07;;;;;;;7.68;4.30;;;;;;;-1.87;100.00;96792.72;5151395;27;20053;-52
2021/12/01 05:51:33;;;;;;;31.85;8.82;;;;;;;-1.88;100.00;96809.97;5151391;27;20425;-52
2021/12/01 05:54:00;;;;;;;62.88;15.50;;;;;;;-1.87;100.00;96818.81;5151799;27;20043;-50
2021/12/01 05:56:27;;;;;;;11.00;4.28;;;;;;;-1.84;100.00;96853.03;5151204;27;20069;-52
2021/12/01 05:58:53;;;;;;;16.90;5.95;;;;;;;-1.82;100.00;96874.97;5151249;27;20370;-53
2021/12/01 06:01:20;;;;;;;11.68;4.43;;;;;;;-1.75;100.00;96859.84;5151512;27;20051;-50
2021/12/01 06:03:47;;;;;;;21.95;8.23;;;;;;;-1.68;100.00;96851.19;5151338;27;20054;-50
2021/12/01 06:06:14;;;;;;;34.92;11.30;;;;;;;-1.69;100.00;96845.06;5151454;27;20561;-53
2021/12/01 06:08:40;;;;;;;11.18;5.35;;;;;;;-1.58;100.00;96874.91;5151138;27;20047;-57
2021/12/01 06:11:06;;;;;;;6.28;4.00;;;;;;;-1.52;100.00;96896.94;5151317;27;20447;-57
2021/12/01 06:13:32;;;;;;;6.45;3.92;;;;;;;-1.50;100.00;96895.47;5151214;27;20054;-62
2021/12/01 06:15:59;;;;;;;12.93;5.05;;;;;;;-1.59;100.00;96848.38;5150784;27;20188;-62
2021/12/01 06:18:25;;;;;;;9.20;4.00;;;;;;;-1.54;100.00;96856.19;5150567;27;20053;-61
2021/12/01 06:20:52;;;;;;;8.90;3.95;;;;;;;-1.48;100.00;96855.59;5150856;27;20046;-53
2021/12/01 06:23:19;;;;;;;12.45;3.97;;;;;;;-1.41;100.00;96868.44;5150636;27;20107;-52
2021/12/01 06:25:45;;;;;;;7.03;3.42;;;;;;;-1.42;100.00;96832.72;5150702;27;20083;-61
2021/12/01 06:28:11;;;;;;;9.05;3.63;;;;;;;-1.37;100.00;96815.56;5129005;27;20051;-59
2021/12/01 06:30:38;;;;;;;30.05;10.07;;;;;;;-1.31;100.00;96819.56;5139096;27;20042;-61
2021/12/01 06:33:05;;;;;;;27.80;9.18;;;;;;;-1.23;100.00;96834.00;5125552;27;20086;-63
2021/12/01 06:35:32;;;;;;;39.50;14.80;;;;;;;-1.25;100.00;96812.81;5129346;28;20047;-63
2021/12/01 06:37:58;;;;;;;34.88;12.38;;;;;;;-1.21;100.00;96812.91;5130009;28;20053;-59
2021/12/01 06:40:26;;;;;;;8.20;4.65;;;;;;;-1.17;100.00;96832.59;5122921;27;20080;-62
2021/12/01 06:42:52;;;;;;;11.10;5.43;;;;;;;-1.22;100.00;96814.81;5150465;27;20443;-59
2021/12/01 06:45:19;;;;;;;6.70;3.80;;;;;;;-1.15;100.00;96805.38;5147454;27;20051;-55
2021/12/01 06:47:46;;;;;;;9.65;4.53;;;;;;;-1.25;100.00;96777.09;5150559;27;20501;-57
2021/12/01 06:50:14;;;;;;;10.73;5.78;;;;;;;-1.24;100.00;96802.84;5150081;27;20528;-53
2021/12/01 06:52:40;;;;;;;13.18;6.68;;;;;;;-1.27;100.00;96784.72;5148775;27;20053;-60
2021/12/01 06:55:09;;;;;;;8.55;4.68;;;;;;;-1.30;100.00;96806.91;5149542;27;20051;-50
2021/12/01 06:57:35;;;;;;;14.73;5.20;;;;;;;-1.27;100.00;96822.34;5150874;27;20533;-52
2021/12/01 07:00:03;;;;;;;8.05;3.83;;;;;;;-1.28;100.00;96828.84;5154008;27;20471;-60
2021/12/01 07:02:30;;;;;;;5.85;3.53;;;;;;;-1.21;100.00;96839.81;5152134;27;20047;-54
2021/12/01 07:04:56;;;;;;;7.28;3.90;;;;;;;-1.27;100.00;96800.84;5153141;27;20051;-52
2021/12/01 07:07:22;;;;;;;12.63;6.22;;;;;;;-1.29;100.00;96816.56;5153909;27;20057;-56
2021/12/01 07:09:50;;;;;;;8.82;4.57;;;;;;;-1.29;100.00;96849.59;5153770;27;20046;-54
2021/12/01 07:12:18;;;;;;;6.03;3.40;;;;;;;-1.29;100.00;96838.06;5153426;27;20474;-51
2021/12/01 07:14:45;;;;;;;6.13;3.47;;;;;;;-1.29;100.00;96841.53;5152013;27;20046;-51
2021/12/01 07:17:11;;;;;;;11.02;4.88;;;;;;;-1.22;100.00;96879.34;5153484;27;20153;-52
2021/12/01 07:19:37;;;;;;;8.50;3.80;;;;;;;-1.22;100.00;96870.50;5153345;27;20046;-51
2021/12/01 07:22:04;;;;;;;3.83;2.97;;;;;;;-1.22;100.00;96881.25;5153502;27;20068;-54
2021/12/01 07:24:30;;;;;;;5.00;3.33;;;;;;;-1.29;100.00;96862.25;5152176;27;20055;-53
2021/12/01 07:26:57;;;;;;;7.80;3.70;;;;;;;-1.30;100.00;96880.28;5143290;27;20051;-57
2021/12/01 07:29:25;;;;;;;12.20;4.55;;;;;;;-1.24;100.00;96894.25;5132841;27;20100;-55
2021/12/01 07:31:51;;;;;;;10.70;4.35;;;;;;;-1.24;100.00;96878.13;5136493;27;20489;-54
2021/12/01 07:34:18;;;;;;;7.57;4.05;;;;;;;-1.24;100.00;96881.59;5148617;27;20046;-52
2021/12/01 07:36:44;;;;;;;12.32;4.45;;;;;;;-1.22;100.00;96887.41;5152225;27;20051;-54
2021/12/01 07:39:10;;;;;;;6.68;3.88;;;;;;;-1.22;100.00;96908.16;5134971;27;20051;-53
2021/12/01 07:41:36;;;;;;;12.57;4.97;;;;;;;-1.24;100.00;96921.91;5132313;28;20051;-60
2021/12/01 07:44:03;;;;;;;7.68;3.88;;;;;;;-1.17;100.00;96939.38;5132607;28;20049;-56
2021/12/01 07:46:30;;;;;;;5.63;3.47;;;;;;;-1.20;100.00;96938.13;5131794;28;20509;-55
2021/12/01 07:48:56;;;;;;;8.60;3.55;;;;;;;-1.10;100.00;96944.94;5131762;28;20478;-54
2021/12/01 07:51:22;;;;;;;9.52;3.85;;;;;;;-1.07;100.00;96955.00;5151115;27;20051;-55
2021/12/01 07:53:49;;;;;;;15.70;4.57;;;;;;;-0.97;100.00;96974.16;5152282;27;20069;-54
2021/12/01 07:56:15;;;;;;;7.90;4.43;;;;;;;-0.92;100.00;96943.53;5152952;27;20145;-55
2021/12/01 07:58:42;;;;;;;9.77;4.18;;;;;;;-0.94;100.00;96918.88;5151842;27;20046;-55
2021/12/01 08:01:08;;;;;;;27.60;7.30;;;;;;;-0.87;100.00;96894.06;5152629;27;20053;-56
2021/12/01 08:03:35;;;;;;;7.03;3.30;;;;;;;-0.86;100.00;96893.72;5152280;27;20106;-56
2021/12/01 08:06:01;;;;;;;6.60;3.78;;;;;;;-0.84;100.00;96882.63;5152898;27;20073;-52
2021/12/01 08:08:27;;;;;;;8.57;3.67;;;;;;;-0.72;100.00;96896.78;5152744;27;20463;-55
2021/12/01 08:10:54;;;;;;;7.55;3.50;;;;;;;-0.65;100.00;96893.47;5150315;27;20095;-60
2021/12/01 08:13:20;;;;;;;48.33;10.18;;;;;;;-0.62;100.00;96833.59;5152705;27;20398;-57
2021/12/01 08:15:47;;;;;;;8.07;3.53;;;;;;;-0.67;100.00;96806.16;5152979;27;20047;-51
2021/12/01 08:18:14;;;;;;;5.63;2.88;;;;;;;-0.67;100.00;96792.72;5152381;27;20050;-52
2021/12/01 08:20:41;;;;;;;9.07;3.20;;;;;;;-0.65;100.00;96802.00;5152910;27;20208;-56
2021/12/01 08:23:07;;;;;;;6.38;3.33;;;;;;;-0.64;100.00;96790.09;5152459;27;20053;-55
2021/12/01 08:25:34;;;;;;;7.05;3.50;;;;;;;-0.58;100.00;96794.09;5152637;27;20047;-52
2021/12/01 08:28:01;;;;;;;6.38;3.30;;;;;;;-0.40;100.00;96820.63;5152870;27;20069;-55
2021/12/01 08:30:28;;;;;;;11.77;3.33;;;;;;;-0.42;100.00;96783.31;5152648;27;20460;-53
2021/12/01 08:32:54;;;;;;;5.15;3.25;;;;;;;-0.54;100.00;96708.03;5152942;27;20408;-54
2021/12/01 08:35:20;;;;;;;13.30;4.15;;;;;;;-0.50;100.00;96708.88;5153119;27;20047;-52
2021/12/01 08:37:47;;;;;;;8.43;3.22;;;;;;;-0.33;100.00;96713.13;5152752;27;20057;-51
2021/12/01 08:40:15;;;;;;;4.85;2.80;;;;;;;-0.40;100.00;96664.50;5152403;27;20043;-53
2021/12/01 08:42:42;;;;;;;5.40;3.10;;;;;;;-0.46;100.00;96631.72;5152717;27;20047;-55
2021/12/01 08:45:09;;;;;;;46.58;10.25;;;;;;;-0.41;100.00;96615.25;5152699;27;20364;-55
2021/12/01 08:47:36;;;;;;;6.03;3.30;;;;;;;-0.32;100.00;96639.28;5152710;27;20043;-52
2021/12/01 08:50:03;;;;;;;25.40;5.95;;;;;;;-0.41;100.00;96615.25;5152511;27;20482;-53
2021/12/01 08:52:29;;;;;;;22.95;5.88;;;;;;;-0.43;100.00;96619.44;5150288;27;20569;-55
2021/12/01 08:54:56;;;;;;;9.43;3.80;;;;;;;-0.32;100.00;96663.53;5142718;27;20569;-54
2021/12/01 08:57:22;;;;;;;7.47;3.22;;;;;;;-0.28;100.00;96672.44;5152554;27;20499;-53
2021/12/01 08:59:50;;;;;;;12.85;4.78;;;;;;;-0.15;100.00;96708.88;5152525;27;20135;-55
2021/12/01 09:02:16;;;;;;;10.23;3.70;;;;;;;-0.19;100.00;96705.31;5152438;27;20158;-53
2021/12/01 09:04:43;;;;;;;11.88;4.55;;;;;;;-0.16;100.00;96701.16;5152326;27;20074;-55
2021/12/01 09:07:09;;;;;;;15.80;5.78;;;;;;;-0.27;100.00;96693.63;5151113;27;20442;-55
2021/12/01 09:09:35;;;;;;;4.68;2.70;;;;;;;-0.15;100.00;96754.63;5152012;27;20090;-54
2021/12/01 09:12:03;;;;;;;5.55;2.80;;;;;;;-0.25;100.00;96725.59;5152135;27;20057;-54
2021/12/01 09:14:29;;;;;;;5.75;3.28;;;;;;;-0.29;100.00;96733.59;5152166;27;20517;-55
2021/12/01 09:16:56;;;;;;;5.55;2.80;;;;;;;-0.29;100.00;96736.28;5152147;27;20047;-54
2021/12/01 09:19:22;;;;;;;11.82;4.50;;;;;;;-0.29;100.00;96757.81;5150973;27;20057;-55
2021/12/01 09:21:49;;;;;;;9.27;4.22;;;;;;;-0.29;100.00;96805.50;5150912;27;20046;-54
2021/12/01 09:24:16;;;;;;;13.38;5.10;;;;;;;-0.33;100.00;96816.19;5151863;27;20042;-55
2021/12/01 09:26:43;;;;;;;5.25;2.85;;;;;;;-0.44;100.00;96798.22;5151976;27;20413;-53
2021/12/01 09:29:11;;;;;;;8.15;3.03;;;;;;;-0.48;100.00;96820.47;5151634;27;20054;-55
2021/12/01 09:31:37;;;;;;;16.83;6.38;;;;;;;-0.29;100.00;96870.91;5151879;27;20497;-53
2021/12/01 09:34:04;;;;;;;9.07;3.67;;;;;;;-0.13;100.00;96895.13;5151358;27;20046;-55
2021/12/01 09:36:31;;;;;;;8.55;3.60;;;;;;;0.03;100.00;96903.16;5152231;27;20047;-56
2021/12/01 09:38:58;;;;;;;5.22;2.88;;;;;;;0.15;100.00;96891.50;5151584;27;20051;-56
2021/12/01 09:41:25;;;;;;;7.20;3.00;;;;;;;0.01;100.00;96821.94;5151469;27;20047;-52
2021/12/01 09:43:52;;;;;;;11.02;5.63;;;;;;;0.03;100.00;96873.53;5144280;27;20061;-55
2021/12/01 09:46:19;;;;;;;4.45;2.60;;;;;;;0.13;100.00;96891.06;5130783;28;20055;-53
2021/12/01 09:48:46;;;;;;;3.20;2.42;;;;;;;0.06;100.00;96856.66;5130997;28;20409;-56
2021/12/01 09:51:15;;;;;;;5.47;2.90;;;;;;;0.04;100.00;96860.84;5135979;27;20065;-56
2021/12/01 09:53:42;;;;;;;6.13;2.50;;;;;;;-0.02;100.00;96857.66;5150940;27;20056;-56
2021/12/01 09:56:09;;;;;;;6.07;3.47;;;;;;;0.03;100.00;96884.28;5151176;27;20413;-53
2021/12/01 09:58:35;;;;;;;23.50;7.40;;;;;;;-0.03;100.00;96870.34;5151569;27;20442;-55
2021/12/01 10:01:05;;;;;;;6.28;3.08;;;;;;;-0.05;100.00;96869.13;5151266;27;20055;-56
2021/12/01 10:03:32;;;;;;;4.55;2.65;;;;;;;-0.06;100.00;96878.34;5152061;27;20054;-55
2021/12/01 10:06:04;;;;;;;7.88;3.45;;;;;;;-0.02;100.00;96876.50;5151201;27;20046;-52
2021/12/01 10:08:33;;;;;;;7.47;3.55;;;;;;;-0.02;100.00;96884.59;5151183;27;20107;-55
2021/12/01 10:11:02;;;;;;;5.45;2.75;;;;;;;-0.11;100.00;96855.13;5150555;27;20451;-54
2021/12/01 10:13:30;;;;;;;12.98;5.40;;;;;;;0.02;100.00;96882.75;5151241;27;20046;-53
2021/12/01 10:15:59;;;;;;;6.10;3.10;;;;;;;0.10;100.00;96886.38;5150930;27;20047;-56
2021/12/01 10:18:26;;;;;;;4.82;2.75;;;;;;;0.10;100.00;96868.31;5150182;27;20086;-55
2021/12/01 10:20:59;;;;;;;4.28;2.58;;;;;;;0.05;100.00;96860.50;5151079;27;20056;-55
2021/12/01 10:23:25;;;;;;;6.30;2.90;;;;;;;0.05;100.00;96878.56;5151042;27;20050;-56
2021/12/01 10:25:51;;;;;;;4.45;2.65;;;;;;;0.16;100.00;96874.19;5150922;27;20144;-55
2021/12/01 10:28:33;;;;;;;3.63;2.10;;;;;;;0.34;100.00;96871.88;5150784;27;20050;-55
2021/12/01 10:31:00;;;;;;;9.20;3.35;;;;;;;0.50;100.00;96859.13;5150972;27;20402;-55
2021/12/01 10:33:28;;;;;;;4.80;2.30;;;;;;;0.54;100.00;96859.97;5152767;27;20493;-56
2021/12/01 10:35:56;;;;;;;6.82;2.63;;;;;;;0.57;100.00;96804.56;5154600;27;20043;-53
2021/12/01 10:38:27;;;;;;;3.30;2.30;;;;;;;0.67;100.00;96793.19;5154389;27;20509;-56
2021/12/01 10:41:02;;;;;;;4.10;2.88;;;;;;;0.81;100.00;96768.41;5154526;27;20051;-53
2021/12/01 10:43:39;;;;;;;12.82;4.30;;;;;;;1.13;100.00;96798.59;5153802;27;20047;-53
2021/12/01 10:46:07;;;;;;;33.45;12.88;;;;;;;1.17;100.00;96740.09;5154526;27;20047;-54
2021/12/01 10:48:34;;;;;;;4.25;2.70;;;;;;;1.13;100.00;96675.25;5154422;27;20064;-55
2021/12/01 10:51:01;;;;;;;4.72;2.83;;;;;;;1.11;100.00;96652.47;5154498;27;20054;-53
2021/12/01 10:53:29;;;;;;;5.28;2.80;;;;;;;1.17;100.00;96680.72;5154462;27;20053;-55
2021/12/01 10:55:58;;;;;;;5.07;3.92;;;;;;;1.28;100.00;96692.44;5154575;27;20057;-56
2021/12/01 10:58:32;;;;;;;8.10;2.35;;;;;;;1.31;100.00;96613.44;5154292;27;20051;-55
2021/12/01 11:01:00;;;;;;;4.03;2.40;;;;;;;1.17;100.00;96568.16;5154571;27;20047;-55
2021/12/01 11:03:30;;;;;;;5.70;2.53;;;;;;;1.00;100.00;96538.22;5154755;27;20047;-55
2021/12/01 11:05:59;;;;;;;7.95;3.75;;;;;;;0.86;100.00;96550.38;5153311;27;20054;-55
2021/12/01 11:08:27;;;;;;;5.78;2.28;;;;;;;0.68;100.00;96565.53;5154138;27;20050;-52
2021/12/01 11:10:56;;;;;;;5.38;2.20;;;;;;;0.53;100.00;96563.75;5153963;27;20522;-55
2021/12/01 11:13:23;;;;;;;10.30;3.58;;;;;;;0.62;100.00;96634.41;5154265;27;20054;-53
2021/12/01 11:15:53;;;;;;;11.55;5.15;;;;;;;0.74;100.00;96690.06;5153880;27;20043;-55
2021/12/01 11:18:21;;;;;;;15.35;6.90;;;;;;;0.83;100.00;96709.47;5153640;27;20073;-56
2021/12/01 11:20:49;;;;;;;29.33;10.70;;;;;;;0.90;100.00;96745.44;5153695;27;20046;-53
2021/12/01 11:23:18;;;;;;;13.73;5.32;;;;;;;0.89;100.00;96729.59;5151344;27;20055;-56
2021/12/01 11:25:47;;;;;;;9.73;4.18;;;;;;;0.81;100.00;96728.72;5153643;27;20489;-55